createdAt,value
2023-02-05T00:00:15.701Z,97.40
2023-02-05T00:00:47.526Z,97.30
2023-02-05T00:01:19.285Z,97.40
2023-02-05T00:01:51.124Z,97.40
2023-02-05T00:02:23.020Z,97.60
2023-02-05T00:02:54.861Z,97.30
2023-02-05T00:03:26.628Z,97.10
2023-02-05T00:03:58.449Z,97.40
2023-02-05T00:04:30.237Z,97.40
2023-02-05T00:05:02.028Z,97.40
2023-02-05T00:05:34.253Z,97.70
2023-02-05T00:06:06.611Z,97.40
2023-02-05T00:06:38.432Z,97.40
2023-02-05T00:07:10.255Z,97.60
2023-02-05T00:07:42.149Z,97.40
2023-02-05T00:08:14.056Z,97.30
2023-02-05T00:08:45.898Z,97.60
2023-02-05T00:09:17.669Z,97.40
2023-02-05T00:09:49.428Z,97.40
2023-02-05T00:10:21.290Z,97.40
2023-02-05T00:10:53.826Z,97.40
2023-02-05T00:11:26.146Z,97.40
2023-02-05T00:11:58.480Z,97.40
2023-02-05T00:12:30.284Z,97.40
2023-02-05T00:13:02.213Z,97.40
2023-02-05T00:13:34.086Z,97.40
2023-02-05T00:14:06.751Z,97.40
2023-02-05T00:14:38.575Z,97.40
2023-02-05T00:15:10.696Z,97.40
2023-02-05T00:15:42.493Z,97.40
2023-02-05T00:16:17.334Z,97.10
2023-02-05T00:16:49.450Z,97.60
2023-02-05T00:17:21.233Z,97.40
2023-02-05T00:17:53.075Z,97.10
2023-02-05T00:18:24.839Z,97.40
2023-02-05T00:18:56.848Z,97.40
2023-02-05T00:19:28.602Z,97.40
2023-02-05T00:20:00.444Z,97.10
2023-02-05T00:20:32.338Z,97.40
2023-02-05T00:21:05.272Z,97.40
2023-02-05T00:21:37.070Z,97.30
2023-02-05T00:22:08.972Z,97.70
2023-02-05T00:22:40.734Z,97.30
2023-02-05T00:23:12.499Z,97.30
2023-02-05T00:23:44.508Z,97.40
2023-02-05T00:24:16.489Z,98.00
2023-02-05T00:24:48.531Z,97.40
2023-02-05T00:25:20.276Z,97.80
2023-02-05T00:25:52.045Z,97.20
2023-02-05T00:26:23.764Z,97.40
2023-02-05T00:26:55.659Z,97.50
2023-02-05T00:27:27.640Z,97.10
2023-02-05T00:28:00.159Z,97.10
2023-02-05T00:28:33.790Z,97.40
2023-02-05T00:29:05.630Z,97.30
2023-02-05T00:29:37.439Z,97.40
2023-02-05T00:30:09.783Z,97.40
2023-02-05T00:30:42.066Z,97.40
2023-02-05T00:31:20.224Z,97.30
2023-02-05T00:31:53.035Z,97.30
2023-02-05T00:32:24.986Z,97.40
2023-02-05T00:32:56.778Z,97.60
2023-02-05T00:33:29.187Z,97.40
2023-02-05T00:34:00.977Z,97.50
2023-02-05T00:34:32.750Z,97.70
2023-02-05T00:35:05.013Z,97.40
2023-02-05T00:35:36.789Z,97.40
2023-02-05T00:36:11.804Z,97.80
2023-02-05T00:36:44.493Z,97.60
2023-02-05T00:37:16.339Z,97.50
2023-02-05T00:37:48.109Z,97.50
2023-02-05T00:38:19.878Z,97.40
2023-02-05T00:38:52.219Z,97.40
2023-02-05T00:39:24.246Z,97.50
2023-02-05T00:39:56.160Z,97.40
2023-02-05T00:40:28.205Z,97.40
2023-02-05T00:41:00.141Z,97.40
2023-02-05T00:41:31.900Z,97.40
2023-02-05T00:42:35.997Z,97.20
2023-02-05T00:43:07.848Z,97.40
2023-02-05T00:43:40.828Z,97.40
2023-02-05T00:44:12.553Z,97.40
2023-02-05T00:44:44.402Z,97.40
2023-02-05T00:45:16.247Z,97.40
2023-02-05T00:45:48.506Z,97.70
2023-02-05T00:46:20.360Z,97.60
2023-02-05T00:46:52.120Z,97.40
2023-02-05T00:47:23.951Z,97.40
2023-02-05T00:47:55.798Z,97.40
2023-02-05T00:48:28.222Z,97.50
2023-02-05T00:49:00.108Z,97.90
2023-02-05T00:49:31.858Z,97.40
2023-02-05T00:50:03.800Z,97.60
2023-02-05T00:50:35.976Z,97.40
2023-02-05T00:51:09.619Z,97.40
2023-02-05T00:51:41.374Z,97.40
2023-02-05T00:52:13.297Z,97.40
2023-02-05T00:52:45.061Z,97.80
2023-02-05T00:53:17.828Z,97.40
2023-02-05T00:53:49.812Z,97.40
2023-02-05T00:54:21.539Z,97.40
2023-02-05T00:54:53.509Z,97.70
2023-02-05T00:55:25.579Z,97.70
2023-02-05T00:55:57.407Z,97.40
2023-02-05T00:56:29.336Z,97.40
2023-02-05T00:57:01.300Z,97.80
2023-02-05T00:57:33.166Z,97.40
2023-02-05T00:58:04.974Z,97.40
2023-02-05T00:58:36.864Z,97.80
2023-02-05T00:59:08.695Z,97.40
2023-02-05T00:59:40.489Z,97.40
2023-02-05T01:00:13.143Z,97.70
2023-02-05T01:00:45.424Z,97.30
2023-02-05T01:01:17.566Z,97.60
2023-02-05T01:01:49.925Z,97.40
2023-02-05T01:02:23.986Z,97.80
2023-02-05T01:02:55.890Z,97.40
2023-02-05T01:03:27.736Z,97.40
2023-02-05T01:03:59.509Z,97.40
2023-02-05T01:04:31.269Z,97.40
2023-02-05T01:05:03.209Z,97.40
2023-02-05T01:05:36.475Z,97.50
2023-02-05T01:06:08.852Z,97.30
2023-02-05T01:06:40.646Z,97.70
2023-02-05T01:07:12.422Z,97.30
2023-02-05T01:07:44.231Z,97.40
2023-02-05T01:08:16.163Z,97.30
2023-02-05T01:08:47.948Z,97.20
2023-02-05T01:09:19.833Z,97.30
2023-02-05T01:09:51.716Z,97.30
2023-02-05T01:10:24.086Z,97.70
2023-02-05T01:10:56.786Z,97.80
2023-02-05T01:11:28.893Z,97.70
2023-02-05T01:12:00.738Z,97.70
2023-02-05T01:12:35.642Z,97.30
2023-02-05T01:13:07.799Z,97.40
2023-02-05T01:13:39.926Z,97.30
2023-02-05T01:14:44.087Z,96.00
2023-02-05T01:15:16.456Z,97.30
2023-02-05T01:15:48.273Z,97.30
2023-02-05T01:16:20.109Z,97.30
2023-02-05T01:16:52.000Z,97.30
2023-02-05T01:17:23.852Z,97.30
2023-02-05T01:17:55.761Z,97.30
2023-02-05T01:18:27.748Z,97.60
2023-02-05T01:19:00.018Z,97.30
2023-02-05T01:19:34.196Z,97.30
2023-02-05T01:20:07.716Z,97.30
2023-02-05T01:20:41.451Z,97.30
2023-02-05T01:21:13.238Z,97.50
2023-02-05T01:21:45.217Z,97.30
2023-02-05T01:22:16.990Z,97.30
2023-02-05T01:22:49.384Z,97.30
2023-02-05T01:23:21.202Z,97.50
2023-02-05T01:23:54.501Z,97.30
2023-02-05T01:24:26.407Z,97.50
2023-02-05T01:24:58.499Z,97.60
2023-02-05T01:25:30.312Z,97.20
2023-02-05T01:26:02.190Z,97.30
2023-02-05T01:26:33.975Z,97.20
2023-02-05T01:27:05.946Z,97.30
2023-02-05T01:27:37.811Z,97.20
2023-02-05T01:28:09.659Z,97.60
2023-02-05T01:28:41.536Z,97.60
2023-02-05T01:29:13.315Z,97.20
2023-02-05T01:29:45.279Z,97.70
2023-02-05T01:30:17.114Z,97.20
2023-02-05T01:30:50.646Z,97.30
2023-02-05T01:31:23.770Z,97.40
2023-02-05T01:31:55.844Z,97.20
2023-02-05T01:32:29.363Z,97.30
2023-02-05T01:33:01.666Z,97.90
2023-02-05T01:33:34.068Z,97.60
2023-02-05T01:34:05.883Z,97.20
2023-02-05T01:34:37.737Z,97.20
2023-02-05T01:35:09.756Z,97.20
2023-02-05T01:35:44.615Z,97.20
2023-02-05T01:36:16.395Z,97.50
2023-02-05T01:36:48.700Z,97.20
2023-02-05T01:37:20.474Z,97.20
2023-02-05T01:37:52.312Z,97.20
2023-02-05T01:38:24.267Z,97.20
2023-02-05T01:38:56.050Z,97.20
2023-02-05T01:39:27.837Z,97.30
2023-02-05T01:39:59.696Z,97.10
2023-02-05T01:40:31.627Z,97.10
2023-02-05T01:41:03.517Z,97.10
2023-02-05T01:41:35.828Z,97.10
2023-02-05T01:42:29.274Z,97.10
2023-02-05T01:43:01.094Z,97.60
2023-02-05T01:43:32.805Z,97.10
2023-02-05T01:44:06.081Z,97.10
2023-02-05T01:44:38.870Z,97.10
2023-02-05T01:45:22.521Z,97.10
2023-02-05T01:45:57.815Z,97.10
2023-02-05T01:46:31.837Z,97.10
2023-02-05T01:47:03.599Z,97.10
2023-02-05T01:47:35.323Z,97.10
2023-02-05T01:48:09.554Z,97.10
2023-02-05T01:48:48.485Z,97.10
2023-02-05T01:49:38.667Z,97.00
2023-02-05T01:50:10.684Z,97.10
2023-02-05T01:50:51.132Z,97.10
2023-02-05T01:51:24.431Z,97.10
2023-02-05T01:52:02.880Z,97.10
2023-02-05T01:52:34.768Z,97.00
2023-02-05T01:53:22.981Z,97.00
2023-02-05T01:53:55.406Z,97.00
2023-02-05T01:54:29.488Z,96.90
2023-02-05T01:55:02.254Z,96.90
2023-02-05T01:55:41.425Z,96.90
2023-02-05T01:56:20.355Z,97.10
2023-02-05T01:56:57.685Z,96.90
2023-02-05T01:57:29.558Z,96.90
2023-02-05T01:58:02.154Z,96.90
2023-02-05T01:58:43.934Z,97.00
2023-02-05T01:59:26.559Z,96.80
2023-02-05T01:59:58.856Z,96.80
2023-02-05T02:00:30.778Z,97.30
2023-02-05T02:01:02.679Z,96.60
2023-02-05T02:01:34.768Z,96.80
2023-02-05T02:02:07.647Z,96.80
2023-02-05T02:02:39.584Z,96.70
2023-02-05T02:03:14.568Z,96.70
2023-02-05T02:03:49.299Z,96.70
2023-02-05T02:04:50.022Z,96.70
2023-02-05T02:05:21.915Z,96.70
2023-02-05T02:05:55.416Z,96.70
2023-02-05T02:06:27.319Z,96.60
2023-02-05T02:07:02.890Z,96.70
2023-02-05T02:07:35.043Z,96.60
2023-02-05T02:08:07.059Z,96.60
2023-02-05T02:08:38.838Z,96.70
2023-02-05T02:09:10.697Z,96.70
2023-02-05T02:09:44.293Z,96.70
2023-02-05T02:10:18.851Z,96.60
2023-02-05T02:10:53.540Z,96.60
2023-02-05T02:11:29.172Z,96.70
2023-02-05T02:12:01.954Z,96.60
2023-02-05T02:12:37.474Z,97.00
2023-02-05T02:13:10.629Z,96.60
2023-02-05T02:14:16.364Z,96.40
2023-02-05T02:14:52.897Z,96.90
2023-02-05T02:15:27.558Z,96.60
2023-02-05T02:16:00.112Z,97.00
2023-02-05T02:16:35.312Z,96.80
2023-02-05T02:17:09.204Z,96.60
2023-02-05T02:17:44.552Z,96.50
2023-02-05T02:18:28.391Z,96.50
2023-02-05T02:19:02.298Z,96.50
2023-02-05T02:20:03.449Z,96.50
2023-02-05T02:20:41.111Z,96.30
2023-02-05T02:21:13.019Z,96.50
2023-02-05T02:22:09.126Z,96.40
2023-02-05T02:22:52.847Z,96.40
2023-02-05T02:23:47.966Z,96.40
2023-02-05T02:24:31.313Z,96.30
2023-02-05T02:25:53.924Z,96.30
2023-02-05T02:26:53.519Z,96.40
2023-02-05T02:27:55.992Z,96.20
2023-02-05T02:29:03.060Z,96.40
2023-02-05T02:30:19.824Z,96.30
2023-02-05T02:31:19.053Z,96.30
2023-02-05T02:32:11.105Z,96.30
2023-02-05T02:32:49.124Z,96.30
2023-02-05T02:33:48.151Z,96.30
2023-02-05T02:34:51.092Z,96.20
2023-02-05T02:35:44.294Z,96.20
2023-02-05T02:36:39.166Z,96.20
2023-02-05T02:37:18.912Z,96.00
2023-02-05T02:38:18.544Z,96.50
2023-02-05T02:39:18.129Z,96.20
2023-02-05T02:40:00.388Z,96.10
2023-02-05T02:40:42.763Z,96.10
2023-02-05T02:41:29.949Z,96.20
2023-02-05T02:42:14.762Z,96.10
2023-02-05T02:42:55.268Z,95.90
2023-02-05T02:43:41.093Z,95.80
2023-02-05T02:44:19.754Z,96.00
2023-02-05T02:44:57.842Z,95.90
2023-02-05T02:45:35.049Z,96.10
2023-02-05T02:46:19.309Z,95.90
2023-02-05T02:46:56.827Z,95.90
2023-02-05T02:47:34.495Z,96.00
2023-02-05T02:48:08.015Z,96.30
2023-02-05T02:48:42.422Z,96.00
2023-02-05T02:49:25.053Z,96.30
2023-02-05T02:50:00.284Z,96.50
2023-02-05T02:50:40.976Z,96.50
2023-02-05T02:51:16.620Z,96.00
2023-02-05T02:51:52.183Z,96.00
2023-02-05T02:52:27.145Z,96.40
2023-02-05T02:53:08.581Z,96.00
2023-02-05T02:53:47.397Z,96.00
2023-02-05T02:54:22.257Z,96.20
2023-02-05T02:55:00.536Z,95.90
2023-02-05T02:55:38.938Z,96.10
2023-02-05T02:56:14.673Z,95.70
2023-02-05T02:56:51.216Z,96.40
2023-02-05T02:57:27.779Z,96.00
2023-02-05T02:58:03.331Z,96.30
2023-02-05T02:58:48.698Z,96.40
2023-02-05T02:59:29.058Z,96.10
2023-02-05T03:00:05.666Z,95.80
2023-02-05T03:00:41.527Z,95.80
2023-02-05T03:01:17.776Z,95.80
2023-02-05T03:01:57.017Z,96.00
2023-02-05T03:02:35.554Z,95.50
2023-02-05T03:03:11.370Z,95.80
2023-02-05T03:03:51.352Z,96.10
2023-02-05T03:04:33.108Z,95.70
2023-02-05T03:05:12.987Z,95.60
2023-02-05T03:05:49.624Z,95.60
2023-02-05T03:06:22.712Z,96.40
2023-02-05T03:07:06.061Z,95.50
2023-02-05T03:07:47.206Z,95.50
2023-02-05T03:08:29.079Z,96.30
2023-02-05T03:09:07.795Z,95.50
2023-02-05T03:09:43.093Z,95.50
2023-02-05T03:10:42.632Z,95.50
2023-02-05T03:11:15.597Z,95.60
2023-02-05T03:11:48.462Z,95.40
2023-02-05T03:12:21.344Z,95.60
2023-02-05T03:12:55.550Z,95.60
2023-02-05T03:13:28.045Z,95.40
2023-02-05T03:14:03.217Z,95.40
2023-02-05T03:14:39.271Z,95.00
2023-02-05T03:15:11.684Z,95.40
2023-02-05T03:15:45.586Z,95.80
2023-02-05T03:16:19.593Z,95.30
2023-02-05T03:16:52.698Z,95.40
2023-02-05T03:17:26.464Z,95.90
2023-02-05T03:17:58.585Z,95.50
2023-02-05T03:18:31.398Z,95.50
2023-02-05T03:19:05.484Z,95.50
2023-02-05T03:19:37.450Z,95.60
2023-02-05T03:20:32.927Z,95.60
2023-02-05T03:21:12.483Z,95.40
2023-02-05T03:21:49.886Z,95.70
2023-02-05T03:22:21.857Z,95.80
2023-02-05T03:22:55.888Z,95.30
2023-02-05T03:23:28.895Z,95.00
2023-02-05T03:24:00.753Z,95.30
2023-02-05T03:24:33.858Z,95.30
2023-02-05T03:25:07.064Z,95.70
2023-02-05T03:25:39.219Z,95.30
2023-02-05T03:26:28.267Z,95.30
2023-02-05T03:27:07.492Z,95.10
2023-02-05T03:27:39.538Z,95.30
2023-02-05T03:28:13.799Z,95.20
2023-02-05T03:28:46.756Z,95.20
2023-02-05T03:29:26.087Z,95.30
2023-02-05T03:29:58.671Z,95.30
2023-02-05T03:30:49.518Z,95.40
2023-02-05T03:31:56.896Z,95.40
2023-02-05T03:32:53.446Z,95.40
2023-02-05T03:33:47.164Z,95.40
2023-02-05T03:34:28.253Z,95.20
2023-02-05T03:35:18.551Z,95.40
2023-02-05T03:36:08.715Z,95.30
2023-02-05T03:36:46.694Z,95.30
2023-02-05T03:37:54.735Z,95.30
2023-02-05T03:38:59.534Z,95.30
2023-02-05T03:39:46.053Z,95.40
2023-02-05T03:40:32.381Z,95.60
2023-02-05T03:41:15.983Z,95.40
2023-02-05T03:42:02.378Z,96.10
2023-02-05T03:43:12.313Z,95.40
2023-02-05T03:44:10.134Z,95.40
2023-02-05T03:45:11.857Z,95.30
2023-02-05T03:45:56.834Z,95.30
2023-02-05T03:46:44.904Z,95.80
2023-02-05T03:47:42.706Z,95.50
2023-02-05T03:48:32.691Z,95.30
2023-02-05T03:49:28.068Z,95.30
2023-02-05T03:50:21.796Z,95.30
2023-02-05T03:51:03.901Z,95.30
2023-02-05T03:51:39.910Z,95.50
2023-02-05T03:52:20.528Z,95.80
2023-02-05T03:53:19.004Z,95.40
2023-02-05T03:54:29.977Z,95.10
2023-02-05T03:55:13.462Z,95.20
2023-02-05T03:55:53.329Z,95.20
2023-02-05T03:56:41.035Z,95.00
2023-02-05T03:57:18.943Z,95.10
2023-02-05T03:58:10.276Z,95.20
2023-02-05T03:58:46.938Z,95.10
2023-02-05T03:59:21.836Z,95.20
2023-02-05T03:59:56.467Z,95.10
2023-02-05T04:00:30.091Z,95.50
2023-02-05T04:01:03.264Z,95.80
2023-02-05T04:01:36.031Z,95.00
2023-02-05T04:02:08.328Z,95.40
2023-02-05T04:02:44.963Z,95.00
2023-02-05T04:03:21.818Z,95.10
2023-02-05T04:03:54.395Z,95.10
2023-02-05T04:04:26.508Z,95.00
2023-02-05T04:05:00.216Z,95.10
2023-02-05T04:05:32.893Z,94.90
2023-02-05T04:06:07.126Z,95.40
2023-02-05T04:06:39.993Z,95.10
2023-02-05T04:07:12.103Z,95.10
2023-02-05T04:07:44.452Z,95.40
2023-02-05T04:08:17.635Z,95.00
2023-02-05T04:08:53.506Z,95.20
2023-02-05T04:09:25.411Z,95.00
2023-02-05T04:09:57.688Z,95.10
2023-02-05T04:10:29.459Z,95.10
2023-02-05T04:11:04.473Z,95.30
2023-02-05T04:11:38.470Z,95.00
2023-02-05T04:12:10.879Z,95.00
2023-02-05T04:12:44.027Z,95.10
2023-02-05T04:13:15.865Z,94.80
2023-02-05T04:13:48.758Z,95.10
2023-02-05T04:14:20.729Z,95.10
2023-02-05T04:14:52.761Z,95.60
2023-02-05T04:15:24.716Z,96.30
2023-02-05T04:15:59.595Z,95.30
2023-02-05T04:16:31.725Z,95.20
2023-02-05T04:17:04.884Z,94.90
2023-02-05T04:17:38.036Z,94.90
2023-02-05T04:18:10.213Z,95.60
2023-02-05T04:18:41.985Z,95.00
2023-02-05T04:19:13.914Z,95.30
2023-02-05T04:19:45.906Z,95.00
2023-02-05T04:20:19.583Z,95.00
2023-02-05T04:20:51.480Z,95.10
2023-02-05T04:21:27.446Z,95.40
2023-02-05T04:21:59.190Z,95.00
2023-02-05T04:22:31.055Z,94.90
2023-02-05T04:23:02.856Z,95.40
2023-02-05T04:23:37.122Z,95.10
2023-02-05T04:24:09.449Z,95.20
2023-02-05T04:24:41.343Z,94.70
2023-02-05T04:25:13.715Z,94.90
2023-02-05T04:25:45.870Z,94.90
2023-02-05T04:26:22.757Z,95.20
2023-02-05T04:27:03.823Z,95.50
2023-02-05T04:27:35.726Z,94.90
2023-02-05T04:28:10.646Z,95.40
2023-02-05T04:28:43.004Z,95.30
2023-02-05T04:29:15.603Z,95.00
2023-02-05T04:29:50.949Z,95.00
2023-02-05T04:30:22.803Z,94.90
2023-02-05T04:30:54.660Z,94.90
2023-02-05T04:31:26.629Z,94.60
2023-02-05T04:31:59.358Z,94.90
2023-02-05T04:32:31.188Z,94.90
2023-02-05T04:33:03.088Z,95.30
2023-02-05T04:33:35.609Z,94.80
2023-02-05T04:34:07.483Z,95.50
2023-02-05T04:34:39.219Z,95.00
2023-02-05T04:35:13.997Z,94.90
2023-02-05T04:35:46.285Z,95.00
2023-02-05T04:36:18.428Z,95.40
2023-02-05T04:36:50.299Z,95.10
2023-02-05T04:37:22.096Z,95.00
2023-02-05T04:37:54.217Z,94.80
2023-02-05T04:38:27.403Z,95.50
2023-02-05T04:38:59.175Z,95.00
2023-02-05T04:39:31.193Z,95.00
2023-02-05T04:40:03.254Z,95.00
2023-02-05T04:40:35.026Z,94.50
2023-02-05T04:41:08.087Z,95.00
2023-02-05T04:41:39.949Z,94.90
2023-02-05T04:42:11.681Z,94.70
2023-02-05T04:42:43.922Z,94.90
2023-02-05T04:43:15.671Z,94.70
2023-02-05T04:43:47.457Z,95.20
2023-02-05T04:44:19.388Z,95.10
2023-02-05T04:44:52.767Z,95.10
2023-02-05T04:45:26.843Z,95.50
2023-02-05T04:45:58.633Z,94.90
2023-02-05T04:46:30.380Z,94.90
2023-02-05T04:47:02.145Z,95.20
2023-02-05T04:47:34.697Z,94.90
2023-02-05T04:48:06.661Z,94.90
2023-02-05T04:48:39.362Z,94.90
2023-02-05T04:49:11.358Z,94.90
2023-02-05T04:49:43.132Z,94.90
2023-02-05T04:50:15.788Z,94.70
2023-02-05T04:50:48.353Z,94.90
2023-02-05T04:51:20.149Z,95.60
2023-02-05T04:51:51.887Z,95.00
2023-02-05T04:52:23.799Z,94.90
2023-02-05T04:52:55.549Z,95.00
2023-02-05T04:53:27.413Z,95.30
2023-02-05T04:53:59.172Z,95.20
2023-02-05T04:54:31.660Z,95.00
2023-02-05T04:55:03.676Z,94.90
2023-02-05T04:55:36.242Z,94.90
2023-02-05T04:56:14.396Z,95.10
2023-02-05T04:56:46.855Z,94.60
2023-02-05T04:57:18.719Z,94.90
2023-02-05T04:57:52.609Z,94.80
2023-02-05T04:58:24.556Z,95.00
2023-02-05T04:58:56.407Z,95.10
2023-02-05T04:59:29.969Z,95.30
2023-02-05T05:00:01.831Z,95.20
2023-02-05T05:00:33.668Z,94.80
2023-02-05T05:01:10.974Z,94.90
2023-02-05T05:01:42.799Z,94.80
2023-02-05T05:02:14.653Z,95.10
2023-02-05T05:02:46.546Z,94.80
2023-02-05T05:03:18.338Z,95.00
2023-02-05T05:03:51.254Z,94.10
2023-02-05T05:04:23.216Z,94.80
2023-02-05T05:04:55.045Z,95.10
2023-02-05T05:05:26.933Z,94.80
2023-02-05T05:06:04.726Z,95.20
2023-02-05T05:06:36.794Z,94.80
2023-02-05T05:07:09.485Z,95.50
2023-02-05T05:07:41.361Z,94.80
2023-02-05T05:08:13.132Z,94.60
2023-02-05T05:08:45.597Z,95.30
2023-02-05T05:09:17.613Z,94.80
2023-02-05T05:09:51.007Z,94.70
2023-02-05T05:10:24.116Z,94.70
2023-02-05T05:10:55.888Z,94.70
2023-02-05T05:11:27.762Z,94.80
2023-02-05T05:11:59.563Z,94.50
2023-02-05T05:12:31.350Z,94.90
2023-02-05T05:13:03.168Z,94.80
2023-02-05T05:13:36.162Z,94.80
2023-02-05T05:14:07.983Z,95.10
2023-02-05T05:14:39.959Z,94.80
2023-02-05T05:15:11.815Z,95.20
2023-02-05T05:15:43.642Z,94.80
2023-02-05T05:16:15.916Z,94.70
2023-02-05T05:16:49.444Z,94.70
2023-02-05T05:17:21.216Z,94.80
2023-02-05T05:17:52.984Z,95.20
2023-02-05T05:18:24.881Z,94.90
2023-02-05T05:18:56.777Z,94.80
2023-02-05T05:19:28.549Z,95.70
2023-02-05T05:20:00.609Z,94.70
2023-02-05T05:20:32.404Z,94.70
2023-02-05T05:21:04.712Z,94.70
2023-02-05T05:21:36.452Z,94.70
2023-02-05T05:22:08.198Z,94.70
2023-02-05T05:22:39.976Z,94.70
2023-02-05T05:23:11.803Z,94.70
2023-02-05T05:23:43.516Z,95.10
2023-02-05T05:24:15.296Z,95.20
2023-02-05T05:24:47.099Z,95.20
2023-02-05T05:25:18.882Z,94.70
2023-02-05T05:25:50.633Z,94.70
2023-02-05T05:26:22.364Z,94.70
2023-02-05T05:26:54.216Z,94.70
2023-02-05T05:27:26.721Z,94.70
2023-02-05T05:27:58.545Z,95.20
2023-02-05T05:28:33.802Z,95.30
2023-02-05T05:29:06.214Z,95.60
2023-02-05T05:29:38.373Z,94.70
2023-02-05T05:30:10.893Z,95.20
2023-02-05T05:30:45.158Z,95.50
2023-02-05T05:31:19.458Z,94.80
2023-02-05T05:31:54.388Z,94.70
2023-02-05T05:32:26.230Z,95.30
2023-02-05T05:32:57.977Z,94.70
2023-02-05T05:33:29.792Z,94.40
2023-02-05T05:34:01.581Z,94.70
2023-02-05T05:34:33.420Z,95.10
2023-02-05T05:35:05.584Z,94.60
2023-02-05T05:35:37.840Z,94.60
2023-02-05T05:36:09.931Z,94.60
2023-02-05T05:36:43.581Z,94.70
2023-02-05T05:37:15.554Z,94.90
2023-02-05T05:37:47.318Z,95.00
2023-02-05T05:38:19.156Z,95.10
2023-02-05T05:38:50.927Z,94.50
2023-02-05T05:39:41.396Z,94.50
2023-02-05T05:40:32.048Z,94.50
2023-02-05T05:41:23.674Z,94.50
2023-02-05T05:42:14.154Z,94.50
2023-02-05T05:43:04.562Z,95.00
2023-02-05T05:43:48.635Z,94.50
2023-02-05T05:44:20.408Z,94.30
2023-02-05T05:44:52.916Z,94.60
2023-02-05T05:45:24.941Z,94.90
2023-02-05T05:45:56.920Z,94.90
2023-02-05T05:46:28.854Z,94.50
2023-02-05T05:47:00.625Z,95.10
2023-02-05T05:47:32.428Z,94.30
2023-02-05T05:48:04.982Z,95.20
2023-02-05T05:48:36.719Z,94.50
2023-02-05T05:49:08.451Z,94.20
2023-02-05T05:49:40.185Z,94.60
2023-02-05T05:50:11.938Z,94.10
2023-02-05T05:50:43.687Z,94.50
2023-02-05T05:51:15.678Z,94.40
2023-02-05T05:51:47.463Z,94.70
2023-02-05T05:52:19.271Z,94.90
2023-02-05T05:52:51.019Z,94.70
2023-02-05T05:53:22.843Z,94.40
2023-02-05T05:53:55.568Z,95.20
2023-02-05T05:54:27.372Z,94.30
2023-02-05T05:54:59.187Z,94.40
2023-02-05T05:55:31.056Z,94.30
2023-02-05T05:56:02.898Z,94.40
2023-02-05T05:56:35.736Z,94.30
2023-02-05T05:57:08.044Z,94.30
2023-02-05T05:57:39.828Z,94.40
2023-02-05T05:58:11.609Z,94.50
2023-02-05T05:58:44.104Z,94.40
2023-02-05T05:59:16.054Z,94.20
2023-02-05T05:59:47.810Z,94.70
2023-02-05T06:00:19.869Z,94.30
2023-02-05T06:00:51.659Z,94.30
2023-02-05T06:01:23.430Z,94.50
2023-02-05T06:01:55.206Z,94.70
2023-02-05T06:02:27.388Z,95.10
2023-02-05T06:02:59.224Z,94.40
2023-02-05T06:03:30.984Z,94.40
2023-02-05T06:04:04.249Z,94.50
2023-02-05T06:04:36.255Z,94.40
2023-02-05T06:05:08.324Z,94.40
2023-02-05T06:05:40.175Z,94.40
2023-02-05T06:06:13.010Z,94.40
2023-02-05T06:06:44.857Z,94.80
2023-02-05T06:07:16.692Z,94.30
2023-02-05T06:07:48.409Z,94.40
2023-02-05T06:08:20.219Z,94.30
2023-02-05T06:08:51.986Z,95.30
2023-02-05T06:09:24.033Z,94.70
2023-02-05T06:09:55.794Z,94.80
2023-02-05T06:10:27.661Z,95.00
2023-02-05T06:10:59.572Z,94.30
2023-02-05T06:11:31.347Z,94.70
2023-02-05T06:12:03.241Z,94.60
2023-02-05T06:12:35.060Z,94.40
2023-02-05T06:13:06.871Z,95.10
2023-02-05T06:13:38.854Z,94.70
2023-02-05T06:14:10.726Z,94.60
2023-02-05T06:14:42.570Z,94.50
2023-02-05T06:15:14.500Z,94.40
2023-02-05T06:15:47.383Z,95.20
2023-02-05T06:16:19.203Z,94.40
2023-02-05T06:16:52.099Z,94.80
2023-02-05T06:17:23.823Z,94.10
2023-02-05T06:17:55.672Z,94.60
2023-02-05T06:18:27.623Z,94.40
2023-02-05T06:18:59.465Z,95.00
2023-02-05T06:19:31.375Z,94.30
2023-02-05T06:20:03.858Z,94.40
2023-02-05T06:20:35.603Z,94.10
2023-02-05T06:21:07.469Z,95.00
2023-02-05T06:21:39.314Z,95.30
2023-02-05T06:22:11.104Z,94.40
2023-02-05T06:22:42.881Z,95.00
2023-02-05T06:23:14.666Z,94.70
2023-02-05T06:23:46.484Z,95.10
2023-02-05T06:24:18.324Z,94.80
2023-02-05T06:24:50.096Z,94.20
2023-02-05T06:25:21.864Z,94.20
2023-02-05T06:25:53.616Z,94.30
2023-02-05T06:26:25.457Z,95.20
2023-02-05T06:26:57.188Z,94.70
2023-02-05T06:27:29.076Z,94.40
2023-02-05T06:28:00.971Z,95.00
2023-02-05T06:28:32.843Z,94.40
2023-02-05T06:29:04.626Z,94.40
2023-02-05T06:29:36.348Z,94.40
2023-02-05T06:30:08.808Z,95.20
2023-02-05T06:30:40.558Z,94.40
2023-02-05T06:31:12.495Z,94.20
2023-02-05T06:31:44.614Z,94.60
2023-02-05T06:32:16.580Z,94.20
2023-02-05T06:32:48.407Z,95.50
2023-02-05T06:33:20.160Z,94.10
2023-02-05T06:33:51.917Z,94.50
2023-02-05T06:34:23.784Z,94.00
2023-02-05T06:34:55.585Z,94.10
2023-02-05T06:35:27.428Z,94.10
2023-02-05T06:35:59.240Z,94.20
2023-02-05T06:36:31.075Z,94.40
2023-02-05T06:37:03.355Z,94.40
2023-02-05T06:37:46.797Z,94.40
2023-02-05T06:38:18.758Z,94.30
2023-02-05T06:38:50.561Z,94.30
2023-02-05T06:39:24.921Z,93.90
2023-02-05T06:39:57.283Z,95.10
2023-02-05T06:40:29.118Z,94.80
2023-02-05T06:41:00.879Z,94.90
2023-02-05T06:41:32.666Z,93.90
2023-02-05T06:42:04.899Z,94.30
2023-02-05T06:43:09.492Z,93.70
2023-02-05T06:43:41.276Z,93.80
2023-02-05T06:44:13.077Z,94.40
2023-02-05T06:44:45.104Z,94.10
2023-02-05T06:45:49.134Z,93.90
2023-02-05T06:46:20.951Z,93.80
2023-02-05T06:46:52.791Z,93.80
2023-02-05T06:47:24.556Z,93.80
2023-02-05T06:48:29.335Z,93.70
2023-02-05T06:49:01.137Z,93.80
2023-02-05T06:50:06.827Z,93.50
2023-02-05T06:50:38.636Z,93.60
2023-02-05T06:51:10.415Z,93.60
2023-02-05T06:51:42.216Z,93.70
2023-02-05T06:52:14.094Z,93.70
2023-02-05T06:52:45.909Z,93.70
2023-02-05T06:53:17.744Z,93.70
2023-02-05T06:53:49.571Z,93.70
2023-02-05T06:54:21.539Z,93.70
2023-02-05T06:54:53.304Z,93.60
2023-02-05T06:55:25.057Z,93.70
2023-02-05T06:55:59.668Z,94.20
2023-02-05T06:56:32.318Z,93.70
2023-02-05T06:57:04.254Z,93.60
2023-02-05T06:57:36.075Z,93.80
2023-02-05T06:58:07.974Z,94.40
2023-02-05T06:58:39.816Z,94.00
2023-02-05T06:59:11.786Z,94.70
2023-02-05T06:59:43.586Z,94.70
2023-02-05T07:00:16.017Z,93.70
2023-02-05T07:00:47.783Z,94.00
2023-02-05T07:01:19.693Z,93.80
2023-02-05T07:01:52.686Z,93.80
2023-02-05T07:02:24.520Z,93.90
2023-02-05T07:02:57.078Z,93.90
2023-02-05T07:03:28.921Z,94.10
2023-02-05T07:04:00.801Z,93.90
2023-02-05T07:04:32.682Z,93.90
2023-02-05T07:05:04.583Z,93.90
2023-02-05T07:05:36.665Z,94.10
2023-02-05T07:06:09.713Z,93.90
2023-02-05T07:06:41.527Z,94.00
2023-02-05T07:07:13.660Z,94.10
2023-02-05T07:07:45.636Z,94.00
2023-02-05T07:08:17.662Z,95.00
2023-02-05T07:08:53.625Z,93.90
2023-02-05T07:09:26.216Z,94.00
2023-02-05T07:09:58.014Z,95.10
2023-02-05T07:10:29.801Z,94.70
2023-02-05T07:11:02.239Z,94.40
2023-02-05T07:11:34.084Z,93.80
2023-02-05T07:12:06.212Z,93.90
2023-02-05T07:13:10.358Z,93.60
2023-02-05T07:14:14.404Z,93.50
2023-02-05T07:15:50.890Z,93.40
2023-02-05T07:17:59.463Z,93.30
2023-02-05T07:18:33.474Z,93.40
2023-02-05T07:19:05.408Z,93.40
2023-02-05T07:19:37.643Z,93.40
2023-02-05T07:20:10.080Z,93.40
2023-02-05T07:22:21.645Z,93.30
2023-02-05T07:22:53.408Z,93.40
2023-02-05T07:23:57.702Z,93.30
2023-02-05T07:25:04.136Z,93.20
2023-02-05T07:25:37.880Z,93.20
2023-02-05T07:26:12.284Z,93.30
2023-02-05T07:27:17.425Z,93.30
2023-02-05T07:28:53.780Z,93.20
2023-02-05T07:29:25.806Z,93.30
2023-02-05T07:29:57.524Z,93.30
2023-02-05T07:30:29.372Z,93.40
2023-02-05T07:31:08.997Z,93.30
2023-02-05T07:32:13.445Z,93.20
2023-02-05T07:32:47.545Z,93.20
2023-02-05T07:33:19.283Z,93.20
2023-02-05T07:34:23.336Z,94.10
2023-02-05T07:34:55.143Z,93.40
2023-02-05T07:35:26.999Z,93.40
2023-02-05T07:36:01.959Z,93.30
2023-02-05T07:36:33.697Z,93.30
2023-02-05T07:37:39.360Z,93.20
2023-02-05T07:38:11.601Z,93.20
2023-02-05T07:39:16.272Z,93.10
2023-02-05T07:39:48.053Z,93.10
2023-02-05T07:40:19.993Z,93.10
2023-02-05T07:40:51.908Z,93.30
2023-02-05T07:41:23.740Z,93.20